createdAt,value
2022-12-23T00:01:14.669Z,36.47
2022-12-23T00:03:02.098Z,38.40
2022-12-23T00:06:37.177Z,37.90
2022-12-23T00:08:24.957Z,37.72
2022-12-23T00:10:12.613Z,35.17
2022-12-23T00:12:18.556Z,33.10
2022-12-23T00:14:24.171Z,31.27
2022-12-23T00:16:14.229Z,31.70
2022-12-23T00:18:01.572Z,31.95
2022-12-23T00:19:48.692Z,28.65
2022-12-23T00:21:36.055Z,29.27
2022-12-23T00:23:23.186Z,28.58
2022-12-23T00:25:11.624Z,29.92
2022-12-23T00:26:59.045Z,29.85
2022-12-23T00:28:46.456Z,29.30
2022-12-23T00:30:33.717Z,30.52
2022-12-23T00:32:21.160Z,40.25
2022-12-23T00:34:09.739Z,41.08
2022-12-23T00:35:57.376Z,54.80
2022-12-23T00:39:54.812Z,31.15
2022-12-23T00:42:01.093Z,28.70
2022-12-23T00:43:48.493Z,30.95
2022-12-23T00:45:35.831Z,36.30
2022-12-23T00:47:41.710Z,32.72
2022-12-23T00:49:44.321Z,32.72
2022-12-23T00:51:31.580Z,29.45
2022-12-23T00:53:19.198Z,27.55
2022-12-23T00:56:54.284Z,27.10
2022-12-23T00:58:41.461Z,29.40
2022-12-23T01:00:47.458Z,31.77
2022-12-23T01:02:58.039Z,29.83
2022-12-23T01:05:03.957Z,29.23
2022-12-23T01:06:51.400Z,30.70
2022-12-23T01:08:39.036Z,30.70
2022-12-23T01:10:26.252Z,31.90
2022-12-23T01:12:14.117Z,32.72
2022-12-23T01:14:01.567Z,32.28
2022-12-23T01:15:48.687Z,32.97
2022-12-23T01:17:36.104Z,32.50
2022-12-23T01:19:23.559Z,34.72
2022-12-23T01:21:11.167Z,36.58
2022-12-23T01:22:58.589Z,38.63
2022-12-23T01:24:45.776Z,43.67
2022-12-23T01:26:32.875Z,44.53
2022-12-23T01:28:20.267Z,46.97
2022-12-23T01:30:08.135Z,55.47
2022-12-23T01:33:42.582Z,40.72
2022-12-23T01:35:29.770Z,40.65
2022-12-23T01:37:17.666Z,39.53
2022-12-23T01:39:05.431Z,39.10
2022-12-23T01:40:52.599Z,36.10
2022-12-23T01:42:46.675Z,36.22
2022-12-23T01:44:55.017Z,35.63
2022-12-23T01:46:42.166Z,35.83
2022-12-23T01:48:29.324Z,37.92
2022-12-23T01:50:19.743Z,36.97
2022-12-23T01:52:07.029Z,36.90
2022-12-23T01:53:59.361Z,35.50
2022-12-23T01:55:52.068Z,35.55
2022-12-23T01:57:42.963Z,35.25
2022-12-23T01:59:50.287Z,34.78
2022-12-23T02:01:56.636Z,34.38
2022-12-23T02:03:46.311Z,34.65
2022-12-23T02:05:34.611Z,38.22
2022-12-23T02:07:40.930Z,38.38
2022-12-23T02:09:29.839Z,40.58
2022-12-23T02:11:36.231Z,40.30
2022-12-23T02:14:08.319Z,38.60
2022-12-23T02:16:19.063Z,38.00
2022-12-23T02:18:20.121Z,39.92
2022-12-23T02:20:36.974Z,38.33
2022-12-23T02:23:02.336Z,45.65
2022-12-23T02:25:02.711Z,44.53
2022-12-23T02:27:08.160Z,38.47
2022-12-23T02:29:14.229Z,34.13
2022-12-23T02:31:10.678Z,34.50
2022-12-23T02:33:09.372Z,34.25
2022-12-23T02:35:33.579Z,34.55
2022-12-23T02:37:41.583Z,31.58
2022-12-23T02:39:59.082Z,32.22
2022-12-23T02:41:58.996Z,30.45
2022-12-23T02:44:03.552Z,31.73
2022-12-23T02:46:02.825Z,31.52
2022-12-23T02:47:58.148Z,32.53
2022-12-23T02:49:52.782Z,30.25
2022-12-23T02:51:45.667Z,31.77
2022-12-23T02:53:38.024Z,34.60
2022-12-23T02:55:38.171Z,35.20
2022-12-23T02:57:32.328Z,31.20
2022-12-23T02:59:24.390Z,32.78
2022-12-23T03:01:15.400Z,31.98
2022-12-23T03:03:03.317Z,32.45
2022-12-23T03:04:50.514Z,28.77
2022-12-23T03:06:44.138Z,29.23
2022-12-23T03:08:39.469Z,29.25
2022-12-23T03:10:26.560Z,29.52
2022-12-23T03:12:28.766Z,29.00
2022-12-23T03:14:39.125Z,28.50
2022-12-23T03:16:50.226Z,29.10
2022-12-23T03:18:40.809Z,28.73
2022-12-23T03:20:48.823Z,29.17
2022-12-23T03:22:56.206Z,31.45
2022-12-23T03:24:50.069Z,38.25
2022-12-23T03:26:42.985Z,48.33
2022-12-23T03:28:41.198Z,46.60
2022-12-23T03:30:29.975Z,45.13
2022-12-23T03:32:18.552Z,46.22
2022-12-23T03:34:16.536Z,54.85
2022-12-23T03:36:28.703Z,46.28
2022-12-23T03:38:19.040Z,45.35
2022-12-23T03:40:18.608Z,38.47
2022-12-23T03:42:22.687Z,37.08
2022-12-23T03:44:19.186Z,46.22
2022-12-23T03:46:18.199Z,55.53
2022-12-23T03:48:10.002Z,46.15
2022-12-23T03:50:03.672Z,54.30
2022-12-23T03:52:21.649Z,62.53
2022-12-23T03:54:15.069Z,48.67
2022-12-23T03:56:14.353Z,41.20
2022-12-23T03:58:03.743Z,50.92
2022-12-23T03:59:51.599Z,59.38
2022-12-23T04:02:03.630Z,44.22
2022-12-23T04:04:11.201Z,43.63
2022-12-23T04:06:02.044Z,36.63
2022-12-23T04:08:04.178Z,36.92
2022-12-23T04:09:54.987Z,44.05
2022-12-23T04:11:42.578Z,57.63
2022-12-23T04:13:30.275Z,45.95
2022-12-23T04:15:25.823Z,44.42
2022-12-23T04:17:13.393Z,49.58
2022-12-23T04:19:00.607Z,47.90
2022-12-23T04:20:47.752Z,47.30
2022-12-23T04:22:35.189Z,54.50
2022-12-23T04:24:22.324Z,51.15
2022-12-23T04:26:09.514Z,45.67
2022-12-23T04:27:56.930Z,46.33
2022-12-23T04:29:44.523Z,72.07
2022-12-23T04:31:32.102Z,64.55
2022-12-23T04:33:19.527Z,49.50
2022-12-23T04:35:06.875Z,49.60
2022-12-23T04:36:54.092Z,42.83
2022-12-23T04:38:41.428Z,44.65
2022-12-23T04:40:28.548Z,43.83
2022-12-23T04:42:15.659Z,43.03
2022-12-23T04:44:03.102Z,43.30
2022-12-23T04:45:51.898Z,37.88
2022-12-23T04:47:39.129Z,54.85
2022-12-23T04:49:26.502Z,55.78
2022-12-23T04:51:13.627Z,67.88
2022-12-23T04:53:00.820Z,68.32
2022-12-23T04:54:48.195Z,57.20
2022-12-23T04:56:35.298Z,54.00
2022-12-23T04:58:24.203Z,51.58
2022-12-23T05:00:12.196Z,42.42
2022-12-23T05:01:59.496Z,49.53
2022-12-23T05:03:46.962Z,45.25
2022-12-23T05:05:34.595Z,51.90
2022-12-23T05:07:21.708Z,48.38
2022-12-23T05:09:09.134Z,53.28
2022-12-23T05:10:57.144Z,54.75
2022-12-23T05:12:44.245Z,42.15
2022-12-23T05:14:31.362Z,35.43
2022-12-23T05:16:19.488Z,37.65
2022-12-23T05:18:06.637Z,37.90
2022-12-23T05:19:53.835Z,38.60
2022-12-23T05:21:41.243Z,39.25
2022-12-23T05:23:28.402Z,42.83
2022-12-23T05:25:15.641Z,48.35
2022-12-23T05:27:03.011Z,45.58
2022-12-23T05:28:50.301Z,53.90
2022-12-23T05:30:37.632Z,42.85
2022-12-23T05:32:25.590Z,47.28
2022-12-23T05:34:12.743Z,52.85
2022-12-23T05:36:00.417Z,55.35
2022-12-23T05:39:35.134Z,48.17
2022-12-23T05:41:22.259Z,41.45
2022-12-23T05:43:09.655Z,45.67
2022-12-23T05:44:56.739Z,39.55
2022-12-23T05:46:44.306Z,38.47
2022-12-23T05:48:32.007Z,41.03
2022-12-23T05:50:19.216Z,44.63
2022-12-23T05:52:09.081Z,40.05
2022-12-23T05:53:56.444Z,44.33
2022-12-23T05:55:43.676Z,53.03
2022-12-23T05:57:32.243Z,47.72
2022-12-23T05:59:19.662Z,47.50
2022-12-23T06:01:06.811Z,42.90
2022-12-23T06:02:54.599Z,44.72
2022-12-23T06:04:42.400Z,42.22
2022-12-23T06:06:29.643Z,60.80
2022-12-23T06:08:16.726Z,38.65
2022-12-23T06:10:05.691Z,44.25
2022-12-23T06:11:52.830Z,44.72
2022-12-23T06:13:40.008Z,50.00
2022-12-23T06:15:27.511Z,38.70
2022-12-23T06:17:14.640Z,40.33
2022-12-23T06:19:02.664Z,33.58
2022-12-23T06:20:50.018Z,31.38
2022-12-23T06:22:37.128Z,32.77
2022-12-23T06:24:24.269Z,33.15
2022-12-23T06:26:11.877Z,34.33
2022-12-23T06:27:59.559Z,32.28
2022-12-23T06:29:46.815Z,32.45
2022-12-23T06:31:35.264Z,43.00
2022-12-23T06:33:23.179Z,31.13
2022-12-23T06:35:10.538Z,50.72
2022-12-23T06:36:58.662Z,41.75
2022-12-23T06:38:46.054Z,30.27
2022-12-23T06:40:33.546Z,29.15
2022-12-23T06:42:21.162Z,26.40
2022-12-23T06:44:09.428Z,29.30
2022-12-23T06:45:57.180Z,30.77
2022-12-23T06:47:45.425Z,32.97
2022-12-23T06:49:32.874Z,35.50
2022-12-23T06:51:20.221Z,33.97
2022-12-23T06:53:08.095Z,33.95
2022-12-23T06:54:55.291Z,34.85
2022-12-23T06:56:42.930Z,35.13
2022-12-23T06:58:31.163Z,31.65
2022-12-23T07:00:18.692Z,29.02
2022-12-23T07:02:06.642Z,31.65
2022-12-23T07:03:54.425Z,30.10
2022-12-23T07:05:42.140Z,30.63
2022-12-23T07:07:32.279Z,36.08
2022-12-23T07:09:19.965Z,31.73
2022-12-23T07:11:07.374Z,36.50
2022-12-23T07:12:54.722Z,42.80
2022-12-23T07:14:42.592Z,35.70
2022-12-23T07:16:29.752Z,33.90
2022-12-23T07:18:17.162Z,31.55
2022-12-23T07:20:05.772Z,32.20
2022-12-23T07:21:53.181Z,34.67
2022-12-23T07:23:40.380Z,28.05
2022-12-23T07:25:28.172Z,28.73
2022-12-23T07:27:15.765Z,32.75
2022-12-23T07:29:04.491Z,33.22
2022-12-23T07:30:52.089Z,34.70
2022-12-23T07:32:39.568Z,32.17
2022-12-23T07:34:27.328Z,27.35
2022-12-23T07:36:15.441Z,27.60
2022-12-23T07:38:03.096Z,32.70
2022-12-23T07:39:50.359Z,40.80
2022-12-23T07:41:37.840Z,31.20
2022-12-23T07:43:27.114Z,44.28
2022-12-23T07:45:14.613Z,44.25
2022-12-23T07:48:49.645Z,33.17
2022-12-23T07:50:37.437Z,32.50
2022-12-23T07:54:14.159Z,27.75
2022-12-23T07:56:01.984Z,34.05
2022-12-23T07:57:51.175Z,33.17
2022-12-23T07:59:38.431Z,33.47
2022-12-23T08:01:25.807Z,32.38
2022-12-23T08:03:13.549Z,29.90
2022-12-23T08:05:01.008Z,35.60
2022-12-23T08:06:48.590Z,30.40
2022-12-23T08:10:23.658Z,34.38
2022-12-23T08:12:11.358Z,38.75
2022-12-23T08:13:59.119Z,31.35
2022-12-23T08:15:46.471Z,32.85
2022-12-23T08:17:34.497Z,30.65
2022-12-23T08:19:22.167Z,29.20
2022-12-23T08:21:14.934Z,27.67
2022-12-23T08:23:02.584Z,26.00
2022-12-23T08:26:37.270Z,23.10
2022-12-23T08:28:24.440Z,34.25
2022-12-23T08:30:12.390Z,26.90
2022-12-23T08:32:00.373Z,28.58
2022-12-23T08:33:50.126Z,29.60
2022-12-23T08:35:37.668Z,29.67
2022-12-23T08:37:25.137Z,28.55
2022-12-23T08:39:12.798Z,29.48
2022-12-23T08:41:00.407Z,28.40
2022-12-23T08:42:47.813Z,30.73
2022-12-23T08:44:35.373Z,32.30
2022-12-23T08:46:23.085Z,31.85
2022-12-23T08:48:10.917Z,28.02
2022-12-23T08:49:58.389Z,26.52
2022-12-23T08:51:46.938Z,26.02
2022-12-23T08:53:35.879Z,28.58
2022-12-23T08:55:23.317Z,27.20
2022-12-23T08:57:10.892Z,24.35
2022-12-23T08:58:58.402Z,29.27
2022-12-23T09:00:45.847Z,42.45
2022-12-23T09:02:34.050Z,42.35
2022-12-23T09:04:21.515Z,30.35
2022-12-23T09:06:21.881Z,35.97
2022-12-23T09:08:12.519Z,34.20
2022-12-23T09:09:59.814Z,32.97
2022-12-23T09:11:47.439Z,29.98
2022-12-23T09:13:36.057Z,35.55
2022-12-23T09:15:23.516Z,29.13
2022-12-23T09:17:10.918Z,29.33
2022-12-23T09:18:58.633Z,33.28
2022-12-23T09:20:46.032Z,33.05
2022-12-23T09:22:33.980Z,45.95
2022-12-23T09:24:21.488Z,43.33
2022-12-23T09:26:12.182Z,49.17
2022-12-23T09:27:59.622Z,44.10
2022-12-23T09:29:47.078Z,35.30
2022-12-23T09:31:37.343Z,32.17
2022-12-23T09:33:25.153Z,28.60
2022-12-23T09:35:12.599Z,25.17
2022-12-23T09:36:59.689Z,24.83
2022-12-23T09:38:47.393Z,27.58
2022-12-23T09:40:37.874Z,36.83
2022-12-23T09:42:33.923Z,36.28
2022-12-23T09:44:38.626Z,36.65
2022-12-23T09:46:35.132Z,66.32
2022-12-23T09:48:26.781Z,39.00
2022-12-23T09:50:16.889Z,29.00
2022-12-23T09:52:06.263Z,26.30
2022-12-23T09:54:02.371Z,25.80
2022-12-23T09:56:28.371Z,26.25
2022-12-23T09:58:34.279Z,24.50
2022-12-23T10:00:22.824Z,25.08
2022-12-23T10:02:30.468Z,27.95
2022-12-23T10:04:34.652Z,25.65
2022-12-23T10:06:28.216Z,30.42
2022-12-23T10:08:24.211Z,36.63
2022-12-23T10:10:21.564Z,37.50
2022-12-23T10:12:40.612Z,39.03
2022-12-23T10:14:31.471Z,37.97
2022-12-23T10:16:20.483Z,39.42
2022-12-23T10:18:20.313Z,28.30
2022-12-23T10:20:18.688Z,24.95
2022-12-23T10:22:46.651Z,45.95
2022-12-23T10:24:47.016Z,40.28
2022-12-23T10:26:47.112Z,45.47
2022-12-23T10:28:34.525Z,33.03
2022-12-23T10:33:28.669Z,30.98
2022-12-23T10:35:37.461Z,28.95
2022-12-23T10:37:44.292Z,35.00
2022-12-23T10:39:44.873Z,28.52
2022-12-23T10:41:40.073Z,33.08
2022-12-23T10:43:49.290Z,36.38
2022-12-23T10:45:54.367Z,42.13
2022-12-23T10:47:56.616Z,27.35
2022-12-23T10:50:12.388Z,32.17
2022-12-23T10:52:15.476Z,44.30
2022-12-23T10:54:22.992Z,34.90
2022-12-23T10:56:10.705Z,30.88
2022-12-23T10:58:06.811Z,39.80
2022-12-23T10:59:53.979Z,39.25
2022-12-23T11:01:43.926Z,29.55
2022-12-23T11:03:39.977Z,32.13
2022-12-23T11:05:29.971Z,38.60
2022-12-23T11:09:40.145Z,35.17
2022-12-23T11:12:04.677Z,42.65
2022-12-23T11:13:52.496Z,29.88
2022-12-23T11:15:42.841Z,23.80
2022-12-23T11:17:33.297Z,35.83
2022-12-23T11:19:20.729Z,45.28
2022-12-23T11:21:14.596Z,44.05
2022-12-23T11:23:03.632Z,44.97
2022-12-23T11:24:51.831Z,46.78
2022-12-23T11:26:40.149Z,35.88
2022-12-23T11:28:28.046Z,46.70
2022-12-23T11:30:19.473Z,37.50
2022-12-23T11:32:28.682Z,41.92
2022-12-23T11:34:19.249Z,30.10
2022-12-23T11:36:08.343Z,38.40
2022-12-23T11:37:57.388Z,23.75
2022-12-23T11:39:46.733Z,42.67
2022-12-23T11:41:47.744Z,43.42
2022-12-23T11:43:35.339Z,63.70
2022-12-23T11:45:26.460Z,54.22
2022-12-23T11:47:22.838Z,98.90
2022-12-23T11:49:23.306Z,80.82
2022-12-23T11:51:11.175Z,72.57
2022-12-23T11:53:12.069Z,62.75
2022-12-23T11:55:04.170Z,56.33
2022-12-23T11:56:53.219Z,49.03
2022-12-23T11:58:54.812Z,53.30
2022-12-23T12:00:55.555Z,58.03
2022-12-23T12:02:46.191Z,48.42
2022-12-23T12:04:35.826Z,74.63
2022-12-23T12:06:23.760Z,48.03
2022-12-23T12:08:14.921Z,52.08
2022-12-23T12:10:03.372Z,53.30
2022-12-23T12:12:15.721Z,45.20
2022-12-23T12:14:05.950Z,46.63
2022-12-23T12:16:22.919Z,40.00
2022-12-23T12:18:14.794Z,44.72
2022-12-23T12:20:14.861Z,45.53
2022-12-23T12:22:12.772Z,62.38
2022-12-23T12:26:17.692Z,32.83
2022-12-23T12:28:09.089Z,39.53
2022-12-23T12:30:02.144Z,59.65
2022-12-23T12:31:56.914Z,42.95
2022-12-23T12:34:11.874Z,45.83
2022-12-23T12:36:23.618Z,28.38
2022-12-23T12:38:23.262Z,26.05
2022-12-23T12:40:40.310Z,56.03
2022-12-23T12:42:42.389Z,29.77
2022-12-23T12:44:55.854Z,45.03
2022-12-23T12:47:28.121Z,44.42
2022-12-23T12:49:20.226Z,46.05
2022-12-23T12:51:17.327Z,34.42
2022-12-23T12:53:14.229Z,31.80
2022-12-23T12:55:34.034Z,45.08
2022-12-23T12:57:24.120Z,53.80
2022-12-23T12:59:18.091Z,48.50
2022-12-23T13:01:24.730Z,40.80
2022-12-23T13:03:47.866Z,40.95
2022-12-23T13:05:54.667Z,45.40
2022-12-23T13:08:05.838Z,38.03
2022-12-23T13:10:02.565Z,40.88
2022-12-23T13:12:10.608Z,49.00
2022-12-23T13:14:26.021Z,43.78
2022-12-23T13:16:31.460Z,45.05
2022-12-23T13:18:34.188Z,40.55
2022-12-23T13:20:21.452Z,56.30
2022-12-23T13:22:13.271Z,56.53
2022-12-23T13:24:20.579Z,115.05
2022-12-23T13:26:30.888Z,50.53
2022-12-23T13:28:48.492Z,34.88
2022-12-23T13:30:46.498Z,36.42
2022-12-23T13:35:01.709Z,40.17
2022-12-23T13:37:01.876Z,57.97
2022-12-23T13:39:13.344Z,51.28
2022-12-23T13:41:12.560Z,53.50
2022-12-23T13:43:06.704Z,47.05
2022-12-23T13:44:55.665Z,30.50
2022-12-23T13:46:48.803Z,33.72
2022-12-23T13:49:02.800Z,28.48
2022-12-23T13:51:01.650Z,28.20
2022-12-23T13:53:15.234Z,29.90
2022-12-23T13:55:05.709Z,45.25
2022-12-23T13:57:03.975Z,44.50
2022-12-23T13:58:52.173Z,25.77
2022-12-23T14:00:43.122Z,24.00
2022-12-23T14:02:37.475Z,25.35
2022-12-23T14:04:36.988Z,23.42
2022-12-23T14:06:25.035Z,24.52
2022-12-23T14:08:26.119Z,25.17
2022-12-23T14:10:22.679Z,26.35
2022-12-23T14:12:21.036Z,39.28
2022-12-23T14:14:19.955Z,30.08
2022-12-23T14:16:30.884Z,28.27
2022-12-23T14:18:46.702Z,33.85
2022-12-23T14:20:49.854Z,65.38
2022-12-23T14:22:56.783Z,71.75
2022-12-23T14:25:05.795Z,51.33
2022-12-23T14:27:12.121Z,37.63
2022-12-23T14:29:33.124Z,37.85
2022-12-23T14:31:41.460Z,56.03
2022-12-23T14:33:31.385Z,77.45
2022-12-23T14:35:40.264Z,41.25
2022-12-23T14:37:35.561Z,36.55
2022-12-23T14:39:34.031Z,33.20
2022-12-23T14:41:25.759Z,33.65
2022-12-23T14:43:22.762Z,73.88
2022-12-23T14:45:41.638Z,80.72
2022-12-23T14:47:32.030Z,44.95
2022-12-23T14:49:40.892Z,35.55
2022-12-23T14:51:37.822Z,30.98
2022-12-23T14:53:35.721Z,38.45
2022-12-23T14:55:30.738Z,108.82
2022-12-23T14:57:22.723Z,54.67
2022-12-23T14:59:17.595Z,103.13
2022-12-23T15:01:16.810Z,76.00
2022-12-23T15:03:04.479Z,56.28
2022-12-23T15:04:55.889Z,51.40
2022-12-23T15:06:47.571Z,61.97
2022-12-23T15:08:42.119Z,42.90
2022-12-23T15:10:29.805Z,42.75
2022-12-23T15:14:30.043Z,35.65
2022-12-23T15:16:18.054Z,40.25
2022-12-23T15:18:14.761Z,42.70
2022-12-23T15:20:11.620Z,47.17
2022-12-23T15:22:19.854Z,52.13
2022-12-23T15:24:20.328Z,42.92
2022-12-23T15:26:09.579Z,40.50
2022-12-23T15:28:01.853Z,46.53
2022-12-23T15:29:52.805Z,44.40
2022-12-23T15:31:42.530Z,42.15
2022-12-23T15:34:02.222Z,47.00
2022-12-23T15:35:43.009Z,44.00
2022-12-23T15:37:31.655Z,39.08
2022-12-23T15:39:36.715Z,45.42
2022-12-23T15:41:24.867Z,41.45
2022-12-23T15:43:24.953Z,65.18
2022-12-23T15:45:41.420Z,68.30
2022-12-23T15:47:31.717Z,73.75
2022-12-23T15:49:21.927Z,61.55
2022-12-23T15:51:30.520Z,48.13
2022-12-23T15:53:34.759Z,37.20
2022-12-23T15:55:31.321Z,47.15
2022-12-23T15:57:21.915Z,36.72
2022-12-23T15:59:22.810Z,62.85
2022-12-23T16:01:15.792Z,47.80
2022-12-23T16:03:06.544Z,48.60
2022-12-23T16:05:00.679Z,38.25
2022-12-23T16:06:51.693Z,79.10
2022-12-23T16:08:40.194Z,57.97
2022-12-23T16:10:28.107Z,57.35
2022-12-23T16:12:27.202Z,43.47
2022-12-23T16:14:24.944Z,43.70
2022-12-23T16:16:20.068Z,55.00
2022-12-23T16:18:31.729Z,51.05
2022-12-23T16:20:21.768Z,53.33
2022-12-23T16:22:15.380Z,51.75
2022-12-23T16:24:07.982Z,48.33
2022-12-23T16:25:55.273Z,48.97
2022-12-23T16:27:56.527Z,38.70
2022-12-23T16:29:45.720Z,44.83
2022-12-23T16:31:32.950Z,46.15
2022-12-23T16:33:37.963Z,44.65
2022-12-23T16:35:38.789Z,47.38
2022-12-23T16:37:25.920Z,42.53
2022-12-23T16:39:23.503Z,42.00
2022-12-23T16:41:11.341Z,46.63
2022-12-23T16:46:37.679Z,42.80
2022-12-23T16:48:47.920Z,55.00
2022-12-23T16:50:36.530Z,55.72
2022-12-23T16:52:24.768Z,49.45
2022-12-23T16:54:18.505Z,51.58
2022-12-23T16:56:14.187Z,54.60
2022-12-23T16:58:01.727Z,52.38
2022-12-23T16:59:50.204Z,56.35
2022-12-23T17:01:40.906Z,61.50
2022-12-23T17:03:29.045Z,82.43
2022-12-23T17:05:21.543Z,86.38
2022-12-23T17:07:12.603Z,77.53
2022-12-23T17:09:00.132Z,60.97
2022-12-23T17:10:47.570Z,75.90
2022-12-23T17:12:35.461Z,86.95
2022-12-23T17:14:25.527Z,76.90
2022-12-23T17:16:20.032Z,66.70
2022-12-23T17:18:13.818Z,55.20
2022-12-23T17:20:01.884Z,53.20
2022-12-23T17:23:46.902Z,51.58
2022-12-23T17:25:36.138Z,52.42
2022-12-23T17:27:25.215Z,52.00
2022-12-23T17:29:13.381Z,50.50
2022-12-23T17:31:01.519Z,49.35
2022-12-23T17:33:00.346Z,46.22
2022-12-23T17:34:48.750Z,51.15
2022-12-23T17:36:36.233Z,59.88
2022-12-23T17:38:25.832Z,51.95
2022-12-23T17:40:16.474Z,53.15
2022-12-23T17:43:52.055Z,47.42
2022-12-23T17:45:41.386Z,64.57
2022-12-23T17:47:29.288Z,59.40
2022-12-23T17:49:17.059Z,57.75
2022-12-23T17:51:22.214Z,55.45
2022-12-23T17:53:18.125Z,49.70
2022-12-23T17:55:11.083Z,45.45
2022-12-23T17:56:58.850Z,49.55
2022-12-23T17:58:49.463Z,46.95
2022-12-23T18:00:39.722Z,47.53
2022-12-23T18:02:33.246Z,53.85
2022-12-23T18:04:20.662Z,56.47
2022-12-23T18:06:14.486Z,57.28
2022-12-23T18:08:03.518Z,69.25
2022-12-23T18:09:53.827Z,96.13
2022-12-23T18:11:44.643Z,123.15
2022-12-23T18:13:32.478Z,154.55
2022-12-23T18:15:47.887Z,100.38
2022-12-23T18:17:35.740Z,78.57
2022-12-23T18:19:23.263Z,67.55
2022-12-23T18:21:20.312Z,84.25
2022-12-23T18:23:19.027Z,84.22
2022-12-23T18:25:07.023Z,78.75
2022-12-23T18:28:43.478Z,69.03
2022-12-23T18:30:30.846Z,79.43
2022-12-23T18:32:27.426Z,73.95
2022-12-23T18:34:18.059Z,71.75
2022-12-23T18:36:05.657Z,68.88
2022-12-23T18:37:56.379Z,64.05
2022-12-23T18:39:45.154Z,72.45
2022-12-23T18:41:32.745Z,70.28
2022-12-23T18:43:22.189Z,75.72
2022-12-23T18:45:37.781Z,77.28
2022-12-23T18:47:25.318Z,88.65
2022-12-23T18:49:13.123Z,85.55
2022-12-23T18:51:00.947Z,87.80
2022-12-23T18:52:48.538Z,89.95
2022-12-23T18:54:35.990Z,88.72
2022-12-23T18:58:13.322Z,82.57
2022-12-23T19:00:00.528Z,85.03
2022-12-23T19:01:47.942Z,87.45
2022-12-23T19:03:35.118Z,95.25
2022-12-23T19:05:28.621Z,91.25
2022-12-23T19:07:16.507Z,89.00
2022-12-23T19:09:04.029Z,90.32
2022-12-23T19:10:52.301Z,92.78
2022-12-23T19:12:39.703Z,99.35
2022-12-23T19:14:26.921Z,104.63
2022-12-23T19:16:20.576Z,103.60
2022-12-23T19:18:12.232Z,113.65
2022-12-23T19:19:59.527Z,110.30
2022-12-23T19:21:46.993Z,116.22
2022-12-23T19:23:34.370Z,100.03
2022-12-23T19:25:21.611Z,97.30
2022-12-23T19:27:08.835Z,85.85
2022-12-23T19:28:56.424Z,79.45
2022-12-23T19:30:43.565Z,70.15
2022-12-23T19:32:31.148Z,75.15
2022-12-23T19:34:18.668Z,72.43
2022-12-23T19:36:10.245Z,77.47
2022-12-23T19:37:57.639Z,68.95
2022-12-23T19:39:45.347Z,74.35
2022-12-23T19:41:32.778Z,80.03
2022-12-23T19:43:20.280Z,65.68
2022-12-23T19:45:09.925Z,64.70
2022-12-23T19:46:58.084Z,62.35
2022-12-23T19:48:51.780Z,64.75
2022-12-23T19:50:39.392Z,57.53
2022-12-23T19:52:26.937Z,59.35
2022-12-23T19:54:14.491Z,72.18
2022-12-23T19:57:52.269Z,66.88
2022-12-23T19:59:39.518Z,67.28
2022-12-23T20:01:27.505Z,65.32
2022-12-23T20:03:14.804Z,63.10
2022-12-23T20:05:02.188Z,64.82
2022-12-23T20:06:49.751Z,71.03
2022-12-23T20:08:37.106Z,74.18
2022-12-23T20:10:24.396Z,66.20
2022-12-23T20:12:12.034Z,61.78
2022-12-23T20:14:00.918Z,60.50
2022-12-23T20:15:48.318Z,58.08
2022-12-23T20:17:37.651Z,58.40
2022-12-23T20:19:24.942Z,59.88
2022-12-23T20:21:12.403Z,56.70
2022-12-23T20:23:00.040Z,61.47
2022-12-23T20:24:47.453Z,64.28
2022-12-23T20:26:35.297Z,71.78
2022-12-23T20:30:15.535Z,77.55
2022-12-23T20:32:02.892Z,76.57
2022-12-23T20:33:52.268Z,75.88
2022-12-23T20:35:39.711Z,90.60
2022-12-23T20:37:27.289Z,91.10
2022-12-23T20:39:15.259Z,83.22
2022-12-23T20:41:05.622Z,101.72
2022-12-23T20:42:53.787Z,120.53
2022-12-23T20:44:41.810Z,118.88
2022-12-23T20:46:29.693Z,119.45
2022-12-23T20:48:18.371Z,121.60
2022-12-23T20:50:06.807Z,118.43
2022-12-23T20:51:54.199Z,110.85
2022-12-23T20:53:42.315Z,111.68
2022-12-23T20:55:31.536Z,107.28
2022-12-23T20:57:19.106Z,108.93
2022-12-23T20:59:06.472Z,109.07
2022-12-23T21:00:53.984Z,114.15
2022-12-23T21:02:42.064Z,126.43
2022-12-23T21:06:17.432Z,107.32
2022-12-23T21:08:05.321Z,106.78
2022-12-23T21:09:53.426Z,100.93
2022-12-23T21:13:30.827Z,90.10
2022-12-23T21:15:18.227Z,88.53
2022-12-23T21:17:06.653Z,60.47
2022-12-23T21:18:53.999Z,84.47
2022-12-23T21:20:41.591Z,100.57
2022-12-23T21:22:29.053Z,102.45
2022-12-23T21:24:16.842Z,105.40
2022-12-23T21:26:27.959Z,104.20
2022-12-23T21:28:15.938Z,100.30
2022-12-23T21:30:03.942Z,98.18
2022-12-23T21:31:52.402Z,116.13
2022-12-23T21:33:42.188Z,115.65
2022-12-23T21:35:29.832Z,131.52
2022-12-23T21:37:17.023Z,148.73
2022-12-23T21:39:07.338Z,162.32
2022-12-23T21:41:00.558Z,135.98
2022-12-23T21:42:47.813Z,219.85
2022-12-23T21:44:36.669Z,230.57
2022-12-23T21:46:25.172Z,233.13
2022-12-23T21:48:12.483Z,186.55
2022-12-23T21:50:00.337Z,149.00
2022-12-23T21:51:48.031Z,142.55
2022-12-23T21:53:36.280Z,133.65
2022-12-23T21:55:24.434Z,133.50
2022-12-23T21:59:01.198Z,118.93
2022-12-23T22:00:48.831Z,118.70
2022-12-23T22:02:36.277Z,117.15
2022-12-23T22:04:25.053Z,116.10
2022-12-23T22:06:26.651Z,117.20
2022-12-23T22:08:14.203Z,111.10
2022-12-23T22:10:01.665Z,110.80
2022-12-23T22:11:49.803Z,112.82
2022-12-23T22:15:25.218Z,102.85
2022-12-23T22:19:02.027Z,101.57
2022-12-23T22:20:49.357Z,97.60
2022-12-23T22:22:37.540Z,103.72
2022-12-23T22:26:22.113Z,88.85
2022-12-23T22:28:12.466Z,85.60
2022-12-23T22:30:00.227Z,85.20
2022-12-23T22:31:50.699Z,89.65
2022-12-23T22:33:38.368Z,80.93
2022-12-23T22:35:27.981Z,76.00
2022-12-23T22:37:15.304Z,73.00
2022-12-23T22:39:03.967Z,64.18
2022-12-23T22:40:52.427Z,61.33
2022-12-23T22:42:39.660Z,64.53
2022-12-23T22:44:27.217Z,64.80
2022-12-23T22:46:15.534Z,58.33
2022-12-23T22:48:02.965Z,56.03
2022-12-23T22:49:50.434Z,53.95
2022-12-23T22:51:40.661Z,52.55
2022-12-23T22:53:29.825Z,53.33
2022-12-23T22:55:17.618Z,53.42
2022-12-23T22:57:05.823Z,60.03
2022-12-23T22:58:55.435Z,67.95
2022-12-23T23:00:43.299Z,75.28
2022-12-23T23:02:30.658Z,81.90
2022-12-23T23:04:18.696Z,84.15
2022-12-23T23:06:07.319Z,84.78
2022-12-23T23:07:54.554Z,97.68
2022-12-23T23:09:42.127Z,102.68
2022-12-23T23:11:29.899Z,96.97
2022-12-23T23:13:17.306Z,93.68
2022-12-23T23:15:04.858Z,91.38
2022-12-23T23:16:52.442Z,92.82
2022-12-23T23:18:39.755Z,85.65
2022-12-23T23:20:27.301Z,97.07
2022-12-23T23:22:15.734Z,89.03
2022-12-23T23:24:03.825Z,91.57
2022-12-23T23:27:38.974Z,89.05
2022-12-23T23:29:26.267Z,81.50
2022-12-23T23:33:21.193Z,80.20
2022-12-23T23:35:10.855Z,75.20
2022-12-23T23:36:58.627Z,81.40
2022-12-23T23:38:46.320Z,66.38
2022-12-23T23:40:33.416Z,65.97
2022-12-23T23:42:20.674Z,66.35
2022-12-23T23:44:08.498Z,71.63
2022-12-23T23:45:56.001Z,60.85
2022-12-23T23:47:43.226Z,69.50
2022-12-23T23:49:30.723Z,54.55
2022-12-23T23:51:17.805Z,58.63
2022-12-23T23:53:05.742Z,50.15
2022-12-23T23:56:41.308Z,47.95
2022-12-23T23:58:28.848Z,48.53
